createdAt,value
2018-11-27T00:01:46.854Z,15.20
2018-11-27T00:04:14.139Z,15.10
2018-11-27T00:06:41.928Z,16.40
2018-11-27T00:09:09.283Z,15.47
2018-11-27T00:11:36.564Z,16.37
2018-11-27T00:14:03.779Z,14.63
2018-11-27T00:16:31.011Z,16.17
2018-11-27T00:18:58.235Z,15.43
2018-11-27T00:21:25.800Z,15.20
2018-11-27T00:23:53.961Z,14.83
2018-11-27T00:26:22.294Z,15.93
2018-11-27T00:28:50.351Z,16.07
2018-11-27T00:31:18.015Z,14.30
2018-11-27T00:33:45.692Z,16.00
2018-11-27T00:36:12.925Z,15.70
2018-11-27T00:38:40.120Z,15.20
2018-11-27T00:41:07.328Z,16.60
2018-11-27T00:43:34.609Z,16.60
2018-11-27T00:46:01.774Z,14.70
2018-11-27T00:48:28.997Z,15.70
2018-11-27T00:50:56.139Z,18.60
2018-11-27T00:53:23.250Z,15.87
2018-11-27T00:55:50.544Z,15.67
2018-11-27T00:58:17.819Z,14.80
2018-11-27T01:00:45.087Z,15.30
2018-11-27T01:03:12.232Z,13.33
2018-11-27T01:05:39.463Z,16.53
2018-11-27T01:08:06.673Z,14.80
2018-11-27T01:10:33.913Z,15.80
2018-11-27T01:13:01.050Z,15.67
2018-11-27T01:15:28.230Z,16.57
2018-11-27T01:17:56.647Z,15.30
2018-11-27T01:20:24.182Z,15.43
2018-11-27T01:22:51.390Z,16.60
2018-11-27T01:25:18.570Z,17.00
2018-11-27T01:27:45.886Z,14.97
2018-11-27T01:30:16.982Z,15.53
2018-11-27T01:32:44.650Z,14.10
2018-11-27T01:35:16.175Z,16.33
2018-11-27T01:37:43.630Z,15.57
2018-11-27T01:40:12.185Z,15.37
2018-11-27T01:42:39.459Z,16.70
2018-11-27T01:45:10.600Z,15.57
2018-11-27T01:47:37.868Z,15.63
2018-11-27T01:50:07.718Z,15.60
2018-11-27T01:52:35.038Z,15.73
2018-11-27T01:55:02.223Z,16.27
2018-11-27T01:57:29.657Z,15.80
2018-11-27T02:00:02.285Z,16.33
2018-11-27T02:02:29.544Z,16.13
2018-11-27T02:04:56.821Z,16.07
2018-11-27T02:07:24.181Z,15.80
2018-11-27T02:09:51.513Z,13.63
2018-11-27T02:12:19.776Z,16.83
2018-11-27T02:14:47.366Z,18.03
2018-11-27T02:17:14.614Z,15.37
2018-11-27T02:19:41.967Z,15.63
2018-11-27T02:22:10.368Z,13.83
2018-11-27T02:24:37.696Z,17.10
2018-11-27T02:27:05.120Z,16.13
2018-11-27T02:29:32.645Z,18.00
2018-11-27T02:32:00.025Z,15.80
2018-11-27T02:34:27.366Z,16.20
2018-11-27T02:36:54.725Z,17.67
2018-11-27T02:39:22.038Z,17.20
2018-11-27T02:41:49.446Z,16.53
2018-11-27T02:44:16.600Z,16.17
2018-11-27T02:46:43.892Z,15.60
2018-11-27T02:49:11.115Z,17.03
2018-11-27T02:51:38.270Z,17.20
2018-11-27T02:54:05.430Z,18.13
2018-11-27T02:56:32.672Z,17.80
2018-11-27T02:58:59.829Z,16.40
2018-11-27T03:01:27.184Z,17.17
2018-11-27T03:04:03.180Z,16.67
2018-11-27T03:06:30.409Z,15.80
2018-11-27T03:08:57.579Z,17.50
2018-11-27T03:11:24.824Z,16.73
2018-11-27T03:13:55.234Z,18.27
2018-11-27T03:16:22.374Z,17.93
2018-11-27T03:18:50.536Z,17.17
2018-11-27T03:21:17.691Z,16.87
2018-11-27T03:23:45.082Z,17.13
2018-11-27T03:26:13.143Z,18.47
2018-11-27T03:28:40.201Z,17.30
2018-11-27T03:31:07.319Z,17.20
2018-11-27T03:33:34.674Z,17.63
2018-11-27T03:36:01.840Z,18.50
2018-11-27T03:38:28.985Z,17.27
2018-11-27T03:40:56.205Z,18.30
2018-11-27T03:43:23.364Z,16.80
2018-11-27T03:45:50.546Z,15.47
2018-11-27T03:48:17.705Z,17.73
2018-11-27T03:50:44.876Z,15.60
2018-11-27T03:53:12.047Z,15.60
2018-11-27T03:55:39.250Z,15.13
2018-11-27T03:58:06.421Z,15.83
2018-11-27T04:00:33.754Z,16.20
2018-11-27T04:03:03.384Z,16.97
2018-11-27T04:05:36.439Z,15.27
2018-11-27T04:08:04.404Z,16.80
2018-11-27T04:10:31.577Z,17.30
2018-11-27T04:12:58.791Z,17.13
2018-11-27T04:15:25.976Z,19.47
2018-11-27T04:17:53.378Z,15.63
2018-11-27T04:20:20.665Z,16.20
2018-11-27T04:22:47.815Z,16.57
2018-11-27T04:25:15.903Z,17.93
2018-11-27T04:27:44.673Z,17.10
2018-11-27T04:30:12.758Z,17.17
2018-11-27T04:32:40.014Z,14.87
2018-11-27T04:35:08.013Z,18.07
2018-11-27T04:37:35.329Z,17.97
2018-11-27T04:40:02.965Z,16.50
2018-11-27T04:42:30.255Z,18.97
2018-11-27T04:44:57.932Z,17.17
2018-11-27T04:47:25.225Z,20.70
2018-11-27T04:49:52.553Z,18.60
2018-11-27T04:52:19.803Z,16.53
2018-11-27T04:54:47.202Z,17.10
2018-11-27T04:57:14.407Z,19.00
2018-11-27T04:59:41.572Z,16.60
2018-11-27T05:02:16.525Z,18.63
2018-11-27T05:04:43.751Z,17.00
2018-11-27T05:07:11.002Z,16.90
2018-11-27T05:09:38.984Z,18.83
2018-11-27T05:12:06.247Z,18.77
2018-11-27T05:14:33.490Z,20.33
2018-11-27T05:17:00.802Z,18.47
2018-11-27T05:19:28.407Z,18.00
2018-11-27T05:21:55.718Z,18.00
2018-11-27T05:24:22.916Z,19.23
2018-11-27T05:26:50.385Z,16.10
2018-11-27T05:29:17.738Z,16.87
2018-11-27T05:31:44.958Z,16.50
2018-11-27T05:34:12.183Z,17.03
2018-11-27T05:36:39.740Z,18.17
2018-11-27T05:39:08.111Z,18.30
2018-11-27T05:41:35.344Z,17.90
2018-11-27T05:44:03.480Z,19.67
2018-11-27T05:46:30.748Z,17.50
2018-11-27T05:48:58.039Z,18.03
2018-11-27T05:51:25.251Z,16.70
2018-11-27T05:53:52.433Z,17.43
2018-11-27T05:56:19.615Z,17.27
2018-11-27T05:58:46.827Z,17.37
2018-11-27T06:01:14.075Z,17.23
2018-11-27T06:03:42.308Z,16.73
2018-11-27T06:06:09.555Z,18.60
2018-11-27T06:08:36.689Z,17.70
2018-11-27T06:11:04.921Z,17.57
2018-11-27T06:13:33.190Z,17.63
2018-11-27T06:16:00.560Z,17.47
2018-11-27T06:18:27.907Z,19.40
2018-11-27T06:20:55.256Z,17.40
2018-11-27T06:23:22.515Z,16.43
2018-11-27T06:25:49.774Z,16.70
2018-11-27T06:28:16.963Z,17.67
2018-11-27T06:30:44.323Z,19.23
2018-11-27T06:33:11.605Z,16.00
2018-11-27T06:35:40.412Z,19.33
2018-11-27T06:38:08.970Z,18.63
2018-11-27T06:40:37.451Z,20.80
2018-11-27T06:43:06.736Z,17.23
2018-11-27T06:45:34.425Z,17.37
2018-11-27T06:48:01.818Z,18.93
2018-11-27T06:50:31.172Z,18.50
2018-11-27T06:52:58.361Z,18.27
2018-11-27T06:55:25.745Z,16.50
2018-11-27T06:57:52.956Z,17.67
2018-11-27T07:00:21.479Z,19.17
2018-11-27T07:02:48.719Z,19.37
2018-11-27T07:05:16.313Z,20.80
2018-11-27T07:07:43.525Z,21.13
2018-11-27T07:10:26.894Z,18.70
2018-11-27T07:13:15.352Z,16.27
2018-11-27T07:15:42.753Z,17.60
2018-11-27T07:18:10.403Z,21.80
2018-11-27T07:20:37.803Z,17.57
2018-11-27T07:23:05.881Z,17.40
2018-11-27T07:25:33.122Z,16.50
2018-11-27T07:28:00.509Z,18.77
2018-11-27T07:30:27.818Z,17.23
2018-11-27T07:33:02.021Z,20.47
2018-11-27T07:35:30.501Z,18.30
2018-11-27T07:37:57.758Z,17.40
2018-11-27T07:40:26.652Z,16.77
2018-11-27T07:42:59.828Z,16.20
2018-11-27T07:45:27.203Z,18.70
2018-11-27T07:47:54.628Z,20.47
2018-11-27T07:50:23.529Z,16.80
2018-11-27T07:52:51.070Z,19.33
2018-11-27T07:55:20.363Z,16.83
2018-11-27T07:57:48.053Z,15.37
2018-11-27T08:00:17.791Z,17.37
2018-11-27T08:02:46.369Z,18.03
2018-11-27T08:05:15.657Z,16.57
2018-11-27T08:07:44.856Z,15.80
2018-11-27T08:10:18.295Z,15.50
2018-11-27T08:12:47.191Z,16.90
2018-11-27T08:15:16.787Z,17.03
2018-11-27T08:17:44.125Z,16.30
2018-11-27T08:20:15.137Z,17.57
2018-11-27T08:22:43.439Z,16.20
2018-11-27T08:25:18.893Z,18.37
2018-11-27T08:27:46.255Z,18.00
2018-11-27T08:30:18.844Z,17.10
2018-11-27T08:34:15.620Z,17.30
2018-11-27T08:36:43.615Z,17.23
2018-11-27T08:39:12.401Z,20.40
2018-11-27T08:41:41.114Z,14.60
2018-11-27T08:44:08.565Z,16.13
2018-11-27T08:46:35.875Z,16.63
2018-11-27T08:49:04.001Z,15.97
2018-11-27T08:51:31.285Z,16.00
2018-11-27T08:53:58.583Z,17.10
2018-11-27T08:56:25.848Z,18.00
2018-11-27T08:58:53.031Z,16.70
2018-11-27T09:01:20.487Z,15.70
2018-11-27T09:03:47.908Z,15.93
2018-11-27T09:06:15.465Z,15.77
2018-11-27T09:08:43.998Z,15.37
2018-11-27T09:11:10.187Z,17.53
2018-11-27T09:13:37.490Z,16.00
2018-11-27T09:16:05.838Z,15.93
2018-11-27T09:18:33.103Z,16.73
2018-11-27T09:21:00.425Z,18.13
2018-11-27T09:23:27.715Z,15.23
2018-11-27T09:25:55.477Z,16.30
2018-11-27T09:28:23.499Z,18.93
2018-11-27T09:30:56.857Z,16.07
2018-11-27T09:33:24.598Z,15.57
2018-11-27T09:35:53.075Z,15.10
2018-11-27T09:38:24.941Z,15.47
2018-11-27T09:40:53.840Z,15.33
2018-11-27T09:43:21.503Z,15.67
2018-11-27T09:45:49.228Z,16.90
2018-11-27T09:48:18.266Z,15.73
2018-11-27T09:50:45.536Z,17.73
2018-11-27T09:53:14.152Z,17.53
2018-11-27T09:55:42.551Z,15.90
2018-11-27T09:58:11.440Z,16.37
2018-11-27T10:00:38.807Z,17.20
2018-11-27T10:03:07.885Z,17.20
2018-11-27T10:05:35.580Z,16.93
2018-11-27T10:08:05.425Z,17.80
2018-11-27T10:10:34.796Z,17.00
2018-11-27T10:13:02.083Z,18.37
2018-11-27T10:15:29.747Z,18.53
2018-11-27T10:18:01.565Z,17.43
2018-11-27T10:20:34.744Z,17.60
2018-11-27T10:23:02.093Z,19.40
2018-11-27T10:25:29.541Z,15.73
2018-11-27T10:27:56.863Z,17.83
2018-11-27T10:30:25.435Z,19.13
2018-11-27T10:32:55.018Z,16.27
2018-11-27T10:35:27.405Z,17.60
2018-11-27T10:37:54.880Z,17.77
2018-11-27T10:40:22.376Z,18.67
2018-11-27T10:42:52.347Z,17.60
2018-11-27T10:45:23.556Z,18.03
2018-11-27T10:47:57.089Z,17.83
2018-11-27T10:50:30.736Z,18.03
2018-11-27T10:52:58.017Z,19.07
2018-11-27T10:55:26.040Z,19.10
2018-11-27T10:57:53.276Z,18.70
2018-11-27T11:00:35.110Z,18.40
2018-11-27T11:03:13.565Z,17.33
2018-11-27T11:05:41.641Z,18.30
2018-11-27T11:08:13.632Z,17.67
2018-11-27T11:10:41.141Z,20.27
2018-11-27T11:13:10.990Z,18.63
2018-11-27T11:15:48.608Z,18.00
2018-11-27T11:18:21.288Z,19.97
2018-11-27T11:20:55.599Z,18.63
2018-11-27T11:23:24.843Z,18.00
2018-11-27T11:25:57.392Z,17.97
2018-11-27T11:28:27.743Z,18.50
2018-11-27T11:30:56.939Z,20.00
2018-11-27T11:33:24.372Z,22.90
2018-11-27T11:35:51.704Z,18.83
2018-11-27T11:38:18.978Z,18.23
2018-11-27T11:40:46.201Z,17.07
2018-11-27T11:43:14.065Z,19.93
2018-11-27T11:45:41.302Z,18.37
2018-11-27T11:48:09.059Z,18.50
2018-11-27T11:50:36.336Z,18.13
2018-11-27T11:53:07.098Z,18.90
2018-11-27T11:55:34.468Z,18.73
2018-11-27T11:58:02.043Z,18.60
2018-11-27T12:00:31.467Z,18.80
2018-11-27T12:02:58.770Z,17.70
2018-11-27T12:05:27.854Z,18.90
2018-11-27T12:07:55.063Z,19.53
2018-11-27T12:10:22.272Z,17.90
2018-11-27T12:12:51.514Z,18.33
2018-11-27T12:15:19.073Z,17.27
2018-11-27T12:17:47.007Z,18.23
2018-11-27T12:20:15.851Z,18.63
2018-11-27T12:22:44.806Z,21.23
2018-11-27T12:25:12.798Z,19.23
2018-11-27T12:27:40.316Z,19.93
2018-11-27T12:30:26.490Z,19.20
2018-11-27T12:32:53.802Z,21.50
2018-11-27T12:35:22.026Z,20.73
2018-11-27T12:37:51.463Z,20.13
2018-11-27T12:40:21.690Z,20.10
2018-11-27T12:42:49.251Z,20.30
2018-11-27T12:45:24.772Z,18.97
2018-11-27T12:47:52.879Z,18.63
2018-11-27T12:50:21.526Z,19.77
2018-11-27T12:52:48.852Z,19.80
2018-11-27T12:55:18.324Z,19.53
2018-11-27T12:57:46.266Z,20.07
2018-11-27T13:00:18.708Z,21.50
2018-11-27T13:02:46.743Z,20.00
2018-11-27T13:05:15.408Z,19.20
2018-11-27T13:07:42.795Z,19.20
2018-11-27T13:10:15.446Z,18.10
2018-11-27T13:12:43.285Z,22.50
2018-11-27T13:15:11.855Z,20.13
2018-11-27T13:17:39.166Z,18.70
2018-11-27T13:20:08.411Z,19.70
2018-11-27T13:22:35.650Z,19.40
2018-11-27T13:25:03.187Z,20.53
2018-11-27T13:27:30.544Z,18.50
2018-11-27T13:29:57.831Z,20.17
2018-11-27T13:32:25.005Z,18.57
2018-11-27T13:34:52.634Z,19.13
2018-11-27T13:37:19.807Z,19.67
2018-11-27T13:39:49.220Z,19.23
2018-11-27T13:42:16.600Z,20.63
2018-11-27T13:44:43.804Z,21.87
2018-11-27T13:47:11.077Z,19.10
2018-11-27T13:49:39.167Z,19.60
2018-11-27T13:52:07.474Z,21.60
2018-11-27T13:54:34.724Z,21.07
2018-11-27T13:57:02.113Z,19.90
2018-11-27T13:59:29.405Z,19.47
2018-11-27T14:01:56.680Z,17.67
2018-11-27T14:04:24.589Z,21.30
2018-11-27T14:06:53.073Z,18.93
2018-11-27T14:09:20.363Z,19.90
2018-11-27T14:11:49.318Z,20.67
2018-11-27T14:14:17.482Z,19.57
2018-11-27T14:16:44.794Z,19.23
2018-11-27T14:19:13.921Z,22.43
2018-11-27T14:21:41.137Z,23.17
2018-11-27T14:24:08.308Z,20.37
2018-11-27T14:26:36.184Z,20.90
2018-11-27T14:29:03.639Z,20.13
2018-11-27T14:31:31.962Z,20.87
2018-11-27T14:33:59.193Z,19.83
2018-11-27T14:36:26.417Z,21.97
2018-11-27T14:38:53.684Z,22.80
2018-11-27T14:41:20.898Z,20.50
2018-11-27T14:43:48.075Z,20.93
2018-11-27T14:46:15.277Z,18.90
2018-11-27T14:48:42.548Z,20.70
2018-11-27T14:51:09.882Z,18.53
2018-11-27T14:53:37.033Z,20.70
2018-11-27T14:56:04.747Z,18.60
2018-11-27T14:58:32.082Z,21.90
2018-11-27T15:00:59.330Z,19.00
2018-11-27T15:03:26.887Z,20.63
2018-11-27T15:05:54.482Z,20.10
2018-11-27T15:08:21.856Z,19.20
2018-11-27T15:10:49.216Z,18.57
2018-11-27T15:13:16.599Z,19.67
2018-11-27T15:15:44.483Z,20.27
2018-11-27T15:18:11.896Z,20.27
2018-11-27T15:20:39.144Z,18.87
2018-11-27T15:23:06.536Z,19.07
2018-11-27T15:25:33.702Z,18.67
2018-11-27T15:28:01.036Z,20.60
2018-11-27T15:30:33.963Z,18.83
2018-11-27T15:33:01.367Z,20.07
2018-11-27T15:35:28.711Z,21.47
2018-11-27T15:37:56.031Z,18.83
2018-11-27T15:40:25.059Z,17.70
2018-11-27T15:42:52.512Z,19.77
2018-11-27T15:45:23.318Z,18.87
2018-11-27T15:47:50.597Z,20.00
2018-11-27T15:50:18.024Z,19.80
2018-11-27T15:52:47.361Z,19.57
2018-11-27T15:55:20.094Z,19.10
2018-11-27T15:57:49.575Z,18.80
2018-11-27T16:00:17.458Z,18.10
2018-11-27T16:02:46.089Z,19.40
2018-11-27T16:05:14.057Z,17.10
2018-11-27T16:07:41.554Z,18.80
2018-11-27T16:10:13.386Z,15.90
2018-11-27T16:12:40.957Z,17.57
2018-11-27T16:15:12.179Z,20.60
2018-11-27T16:17:39.592Z,18.73
2018-11-27T16:20:10.586Z,17.30
2018-11-27T16:22:37.989Z,16.73
2018-11-27T16:25:07.577Z,19.50
2018-11-27T16:27:34.850Z,19.20
2018-11-27T16:30:02.202Z,18.20
2018-11-27T16:32:29.416Z,17.17
2018-11-27T16:34:57.160Z,17.07
2018-11-27T16:37:24.580Z,18.40
2018-11-27T16:39:53.279Z,19.00
2018-11-27T16:42:20.908Z,18.33
2018-11-27T16:44:48.596Z,19.43
2018-11-27T16:47:16.536Z,17.40
2018-11-27T16:49:43.854Z,18.90
2018-11-27T16:52:11.319Z,21.40
2018-11-27T16:54:39.795Z,19.17
2018-11-27T16:57:07.933Z,18.10
2018-11-27T16:59:35.484Z,17.13
2018-11-27T17:02:02.904Z,21.00
2018-11-27T17:04:30.158Z,18.27
2018-11-27T17:06:58.407Z,17.30
2018-11-27T17:09:25.886Z,18.03
2018-11-27T17:11:54.309Z,17.70
2018-11-27T17:14:21.548Z,17.50
2018-11-27T17:16:48.828Z,19.47
2018-11-27T17:19:16.297Z,16.07
2018-11-27T17:21:43.968Z,16.63
2018-11-27T17:24:11.421Z,18.53
2018-11-27T17:26:38.787Z,18.63
2018-11-27T17:29:07.318Z,18.50
2018-11-27T17:31:34.700Z,20.13
2018-11-27T17:34:08.154Z,18.07
2018-11-27T17:36:36.813Z,17.30
2018-11-27T17:39:08.578Z,19.53
2018-11-27T17:41:35.985Z,17.00
2018-11-27T17:44:03.622Z,20.40
2018-11-27T17:46:32.261Z,19.93
2018-11-27T17:48:59.605Z,18.27
2018-11-27T17:51:27.178Z,16.00
2018-11-27T17:53:54.860Z,16.90
2018-11-27T17:56:22.253Z,18.07
2018-11-27T17:58:49.631Z,18.57
2018-11-27T18:01:16.968Z,17.50
2018-11-27T18:03:44.308Z,20.37
2018-11-27T18:06:11.701Z,19.07
2018-11-27T18:08:39.344Z,17.60
2018-11-27T18:11:06.837Z,17.60
2018-11-27T18:13:35.041Z,17.57
2018-11-27T18:16:02.952Z,16.50
2018-11-27T18:18:30.563Z,19.47
2018-11-27T18:20:58.210Z,20.23
2018-11-27T18:23:25.777Z,18.47
2018-11-27T18:25:56.997Z,18.17
2018-11-27T18:28:24.477Z,18.60
2018-11-27T18:30:52.556Z,19.00
2018-11-27T18:33:19.950Z,18.10
2018-11-27T18:35:47.450Z,15.80
2018-11-27T18:38:14.995Z,19.37
2018-11-27T18:40:42.396Z,18.27
2018-11-27T18:43:10.034Z,18.30
2018-11-27T18:45:39.414Z,17.30
2018-11-27T18:48:06.791Z,16.80
2018-11-27T18:50:34.931Z,19.90
2018-11-27T18:53:02.457Z,17.83
2018-11-27T18:55:30.025Z,17.47
2018-11-27T18:57:58.968Z,17.53
2018-11-27T19:00:27.508Z,18.20
2018-11-27T19:02:55.830Z,19.43
2018-11-27T19:05:23.234Z,18.80
2018-11-27T19:07:50.603Z,17.77
2018-11-27T19:10:20.469Z,17.93
2018-11-27T19:12:48.256Z,19.27
2018-11-27T19:15:19.092Z,18.27
2018-11-27T19:17:48.220Z,17.10
2018-11-27T19:20:15.520Z,17.57
2018-11-27T19:22:43.153Z,18.70
2018-11-27T19:25:11.844Z,18.93
2018-11-27T19:27:39.357Z,17.10
2018-11-27T19:30:17.055Z,17.40
2018-11-27T19:32:44.436Z,17.57
2018-11-27T19:35:15.430Z,19.57
2018-11-27T19:37:43.334Z,18.70
2018-11-27T19:40:14.167Z,19.53
2018-11-27T19:42:41.456Z,19.83
2018-11-27T19:45:19.399Z,18.27
2018-11-27T19:47:47.276Z,17.50
2018-11-27T19:50:14.832Z,18.67
2018-11-27T19:52:43.296Z,17.50
2018-11-27T19:55:14.725Z,19.77
2018-11-27T19:57:42.243Z,18.63
2018-11-27T20:00:14.103Z,18.27
2018-11-27T20:02:41.436Z,19.50
2018-11-27T20:05:13.053Z,19.97
2018-11-27T20:07:44.672Z,20.30
2018-11-27T20:10:13.371Z,18.80
2018-11-27T20:12:40.804Z,19.77
2018-11-27T20:15:20.255Z,19.20
2018-11-27T20:17:48.497Z,18.27
2018-11-27T20:20:20.973Z,21.23
2018-11-27T20:22:48.594Z,21.30
2018-11-27T20:25:17.256Z,20.53
2018-11-27T20:27:45.338Z,18.63
2018-11-27T20:30:16.963Z,20.50
2018-11-27T20:32:47.839Z,21.93
2018-11-27T20:35:15.293Z,20.20
2018-11-27T20:37:43.544Z,20.57
2018-11-27T20:40:12.260Z,19.37
2018-11-27T20:44:05.422Z,21.60
2018-11-27T20:46:32.875Z,20.20
2018-11-27T20:49:00.159Z,20.80
2018-11-27T20:51:27.499Z,18.83
2018-11-27T20:53:55.217Z,21.70
2018-11-27T20:56:22.809Z,20.40
2018-11-27T20:58:51.306Z,18.67
2018-11-27T21:01:18.657Z,19.47
2018-11-27T21:03:46.187Z,20.73
2018-11-27T21:06:13.644Z,23.80
2018-11-27T21:08:40.951Z,23.53
2018-11-27T21:11:08.565Z,20.73
2018-11-27T21:13:36.089Z,21.27
2018-11-27T21:16:03.593Z,26.17
2018-11-27T21:18:31.157Z,22.37
2018-11-27T21:20:58.966Z,21.00
2018-11-27T21:23:26.445Z,23.67
2018-11-27T21:25:56.521Z,21.57
2018-11-27T21:28:23.948Z,20.23
2018-11-27T21:30:51.671Z,20.93
2018-11-27T21:33:18.977Z,22.97
2018-11-27T21:35:46.267Z,23.93
2018-11-27T21:38:13.689Z,20.20
2018-11-27T21:40:41.081Z,22.37
2018-11-27T21:43:08.438Z,23.47
2018-11-27T21:45:36.460Z,23.03
2018-11-27T21:48:05.307Z,21.90
2018-11-27T21:50:39.477Z,23.57
2018-11-27T21:53:07.502Z,20.97
2018-11-27T21:55:37.504Z,23.43
2018-11-27T21:58:05.740Z,24.67
2018-11-27T22:00:33.150Z,23.90
2018-11-27T22:03:01.471Z,22.60
2018-11-27T22:05:29.995Z,24.40
2018-11-27T22:07:57.387Z,19.43
2018-11-27T22:10:26.093Z,22.83
2018-11-27T22:12:54.823Z,24.00
2018-11-27T22:15:30.106Z,24.83
2018-11-27T22:17:58.468Z,23.07
2018-11-27T22:20:26.017Z,22.23
2018-11-27T22:22:53.890Z,22.93
2018-11-27T22:25:22.815Z,21.20
2018-11-27T22:27:50.194Z,23.87
2018-11-27T22:30:19.493Z,22.80
2018-11-27T22:32:50.373Z,29.17
2018-11-27T22:35:18.116Z,23.20
2018-11-27T22:37:51.142Z,22.67
2018-11-27T22:40:20.523Z,22.20
2018-11-27T22:42:49.009Z,22.13
2018-11-27T22:45:18.775Z,22.97
2018-11-27T22:47:47.347Z,22.67
2018-11-27T22:52:55.242Z,27.67
2018-11-27T22:55:23.248Z,24.27
2018-11-27T22:57:51.339Z,22.83
2018-11-27T23:00:26.470Z,22.90
2018-11-27T23:02:53.999Z,23.30
2018-11-27T23:05:22.510Z,22.50
2018-11-27T23:07:53.066Z,21.60
2018-11-27T23:10:21.853Z,22.20
2018-11-27T23:12:49.164Z,21.67
2018-11-27T23:15:19.031Z,20.63
2018-11-27T23:17:46.974Z,22.97
2018-11-27T23:20:17.032Z,22.80
2018-11-27T23:22:44.423Z,22.10
2018-11-27T23:25:12.624Z,23.30
2018-11-27T23:27:39.929Z,24.80
2018-11-27T23:30:11.696Z,21.37
2018-11-27T23:32:38.891Z,25.00
2018-11-27T23:35:06.350Z,23.90
2018-11-27T23:37:33.645Z,25.50
2018-11-27T23:40:00.866Z,23.17
2018-11-27T23:42:28.082Z,23.50
2018-11-27T23:44:55.306Z,22.40
2018-11-27T23:47:22.511Z,21.60
2018-11-27T23:49:49.654Z,21.80
2018-11-27T23:52:18.017Z,20.70
2018-11-27T23:54:45.466Z,19.10
2018-11-27T23:57:12.745Z,22.80
2018-11-27T23:59:39.875Z,22.37
